createdAt,value
2022-10-20T00:02:08.615Z,75.62
2022-10-20T00:04:39.010Z,76.62
2022-10-20T00:07:09.624Z,76.90
2022-10-20T00:09:40.381Z,76.56
2022-10-20T00:12:10.892Z,76.97
2022-10-20T00:14:41.218Z,76.68
2022-10-20T00:17:11.523Z,77.22
2022-10-20T00:19:41.980Z,76.17
2022-10-20T00:22:12.342Z,76.85
2022-10-20T00:24:43.298Z,77.88
2022-10-20T00:27:13.691Z,77.60
2022-10-20T00:29:44.003Z,77.09
2022-10-20T00:32:14.669Z,77.54
2022-10-20T00:34:45.004Z,77.13
2022-10-20T00:37:15.333Z,78.25
2022-10-20T00:39:45.672Z,78.60
2022-10-20T00:42:18.045Z,77.90
2022-10-20T00:45:01.121Z,77.33
2022-10-20T00:47:39.893Z,77.36
2022-10-20T00:50:16.214Z,77.13
2022-10-20T00:52:48.631Z,77.40
2022-10-20T00:55:22.336Z,77.62
2022-10-20T00:57:58.074Z,78.03
2022-10-20T01:00:29.198Z,78.16
2022-10-20T01:03:02.460Z,78.90
2022-10-20T01:05:32.855Z,77.99
2022-10-20T01:08:03.314Z,78.85
2022-10-20T01:10:36.841Z,78.10
2022-10-20T01:13:18.443Z,78.34
2022-10-20T01:15:57.857Z,78.47
2022-10-20T01:18:39.878Z,78.64
2022-10-20T01:21:18.959Z,78.42
2022-10-20T01:24:24.116Z,78.77
2022-10-20T01:27:00.377Z,78.47
2022-10-20T01:29:36.336Z,78.31
2022-10-20T01:32:24.937Z,78.86
2022-10-20T01:35:07.240Z,78.49
2022-10-20T01:37:49.085Z,79.57
2022-10-20T01:40:25.021Z,79.43
2022-10-20T01:42:58.000Z,79.41
2022-10-20T01:45:31.303Z,78.71
2022-10-20T01:48:04.830Z,79.33
2022-10-20T01:50:36.540Z,78.82
2022-10-20T01:53:07.287Z,78.75
2022-10-20T01:55:39.903Z,79.33
2022-10-20T01:58:19.076Z,79.39
2022-10-20T02:00:53.014Z,78.91
2022-10-20T02:03:47.753Z,79.14
2022-10-20T02:06:23.922Z,79.25
2022-10-20T02:08:57.552Z,79.49
2022-10-20T02:11:51.923Z,79.51
2022-10-20T02:14:24.194Z,80.24
2022-10-20T02:17:03.239Z,79.58
2022-10-20T02:19:36.621Z,79.51
2022-10-20T02:22:09.466Z,79.87
2022-10-20T02:24:42.115Z,79.65
2022-10-20T02:27:18.038Z,79.51
2022-10-20T02:29:51.636Z,79.46
2022-10-20T02:32:23.562Z,79.34
2022-10-20T02:34:53.945Z,79.75
2022-10-20T02:37:24.387Z,79.67
2022-10-20T02:39:54.708Z,80.00
2022-10-20T02:42:25.197Z,79.75
2022-10-20T02:44:55.752Z,79.42
2022-10-20T02:47:26.133Z,80.16
2022-10-20T02:49:56.802Z,79.45
2022-10-20T02:52:27.193Z,79.94
2022-10-20T02:54:57.542Z,79.99
2022-10-20T02:57:28.028Z,79.77
2022-10-20T02:59:58.434Z,79.42
2022-10-20T03:02:28.795Z,80.19
2022-10-20T03:05:01.206Z,80.31
2022-10-20T03:07:33.046Z,79.64
2022-10-20T03:10:03.699Z,80.18
2022-10-20T03:12:34.086Z,80.34
2022-10-20T03:15:05.982Z,80.40
2022-10-20T03:17:36.651Z,80.42
2022-10-20T03:20:08.480Z,79.97
2022-10-20T03:22:38.890Z,80.33
2022-10-20T03:25:09.327Z,80.02
2022-10-20T03:27:39.783Z,80.31
2022-10-20T03:30:10.952Z,79.96
2022-10-20T03:32:41.355Z,79.82
2022-10-20T03:35:11.888Z,80.25
2022-10-20T03:37:42.223Z,80.55
2022-10-20T03:40:12.847Z,80.17
2022-10-20T03:42:43.158Z,80.05
2022-10-20T03:45:16.282Z,80.77
2022-10-20T03:47:45.553Z,80.33
2022-10-20T03:50:15.951Z,79.93
2022-10-20T03:52:50.931Z,80.45
2022-10-20T03:55:21.285Z,80.22
2022-10-20T03:57:51.702Z,80.85
2022-10-20T04:00:22.243Z,80.43
2022-10-20T04:02:53.110Z,80.35
2022-10-20T04:05:23.637Z,80.59
2022-10-20T04:07:54.000Z,80.87
2022-10-20T04:10:24.484Z,80.97
2022-10-20T04:12:56.454Z,81.52
2022-10-20T04:15:26.985Z,80.82
2022-10-20T04:17:57.577Z,80.69
2022-10-20T04:20:28.131Z,81.03
2022-10-20T04:22:58.653Z,81.01
2022-10-20T04:25:28.948Z,80.94
2022-10-20T04:28:00.573Z,80.71
2022-10-20T04:30:30.920Z,80.87
2022-10-20T04:33:01.238Z,81.21
2022-10-20T04:35:31.606Z,81.68
2022-10-20T04:38:02.185Z,81.17
2022-10-20T04:40:32.664Z,81.52
2022-10-20T04:43:03.637Z,81.92
2022-10-20T04:45:33.978Z,81.48
2022-10-20T04:48:06.195Z,81.16
2022-10-20T04:50:36.567Z,81.34
2022-10-20T04:53:07.695Z,81.55
2022-10-20T04:55:38.277Z,82.23
2022-10-20T04:58:08.757Z,81.44
2022-10-20T05:00:39.392Z,81.64
2022-10-20T05:05:40.085Z,81.48
2022-10-20T05:08:10.475Z,81.47
2022-10-20T05:10:40.844Z,81.44
2022-10-20T05:13:11.568Z,81.58
2022-10-20T05:15:41.883Z,81.70
2022-10-20T05:18:12.271Z,81.59
2022-10-20T05:21:07.279Z,81.60
2022-10-20T05:23:14.807Z,81.62
2022-10-20T05:25:45.182Z,81.92
2022-10-20T05:28:15.746Z,82.26
2022-10-20T05:30:46.155Z,82.41
2022-10-20T05:33:16.557Z,81.90
2022-10-20T05:35:46.960Z,81.78
2022-10-20T05:38:17.444Z,81.62
2022-10-20T05:40:47.813Z,81.58
2022-10-20T05:43:18.345Z,81.82
2022-10-20T05:45:51.760Z,82.21
2022-10-20T05:48:22.206Z,82.13
2022-10-20T05:50:52.572Z,82.22
2022-10-20T05:53:22.965Z,81.84
2022-10-20T05:55:53.342Z,81.81
2022-10-20T05:58:23.730Z,81.69
2022-10-20T06:00:54.030Z,81.65
2022-10-20T06:03:27.500Z,81.57
2022-10-20T06:06:00.813Z,81.89
2022-10-20T06:08:33.487Z,81.83
2022-10-20T06:11:06.924Z,82.13
2022-10-20T06:13:37.587Z,82.00
2022-10-20T06:16:11.116Z,81.81
2022-10-20T06:18:43.511Z,82.12
2022-10-20T06:21:17.436Z,81.75
2022-10-20T06:23:48.311Z,81.62
2022-10-20T06:26:21.545Z,81.75
2022-10-20T06:29:02.760Z,81.67
2022-10-20T06:31:31.734Z,83.07
2022-10-20T06:34:04.195Z,82.15
2022-10-20T06:36:37.615Z,81.84
2022-10-20T06:39:09.750Z,81.67
2022-10-20T06:41:40.671Z,81.94
2022-10-20T06:44:11.087Z,81.88
2022-10-20T06:46:41.406Z,81.43
2022-10-20T06:49:12.756Z,81.26
2022-10-20T06:51:43.148Z,81.26
2022-10-20T06:54:36.893Z,81.27
2022-10-20T06:57:07.284Z,81.08
2022-10-20T06:59:38.749Z,81.10
2022-10-20T07:02:12.327Z,81.27
2022-10-20T07:04:42.823Z,80.77
2022-10-20T07:07:13.195Z,80.80
2022-10-20T07:09:43.435Z,80.67
2022-10-20T07:12:13.879Z,80.57
2022-10-20T07:14:44.177Z,80.89
2022-10-20T07:17:14.712Z,80.32
2022-10-20T07:19:45.191Z,80.24
2022-10-20T07:22:15.514Z,80.02
2022-10-20T07:24:45.899Z,80.24
2022-10-20T07:27:16.243Z,79.81
2022-10-20T07:29:46.715Z,79.21
2022-10-20T07:32:17.174Z,79.29
2022-10-20T07:34:47.639Z,79.25
2022-10-20T07:37:17.997Z,78.63
2022-10-20T07:39:48.388Z,78.72
2022-10-20T07:42:18.749Z,78.39
2022-10-20T07:44:48.958Z,78.58
2022-10-20T07:47:19.222Z,78.34
2022-10-20T07:49:49.583Z,78.10
2022-10-20T07:52:19.983Z,77.97
2022-10-20T07:54:50.305Z,77.78
2022-10-20T07:57:20.667Z,77.46
2022-10-20T07:59:50.998Z,77.32
2022-10-20T08:02:21.395Z,77.39
2022-10-20T08:04:52.418Z,77.18
2022-10-20T08:07:22.652Z,77.18
2022-10-20T08:09:53.039Z,76.79
2022-10-20T08:12:23.421Z,76.65
2022-10-20T08:14:56.534Z,76.52
2022-10-20T08:17:27.586Z,76.38
2022-10-20T08:22:47.364Z,75.54
2022-10-20T08:25:18.382Z,75.28
2022-10-20T08:27:48.774Z,75.10
2022-10-20T08:30:23.980Z,75.08
2022-10-20T08:32:54.763Z,73.97
2022-10-20T08:35:26.051Z,74.07
2022-10-20T08:37:58.078Z,73.64
2022-10-20T08:40:31.116Z,73.05
2022-10-20T08:43:01.795Z,72.83
2022-10-20T08:45:37.321Z,73.06
2022-10-20T08:48:04.447Z,72.70
2022-10-20T08:50:35.637Z,71.38
2022-10-20T08:53:06.122Z,70.78
2022-10-20T08:55:37.099Z,70.96
2022-10-20T08:58:10.504Z,70.02
2022-10-20T09:00:41.904Z,69.92
2022-10-20T09:03:18.504Z,69.87
2022-10-20T09:05:51.959Z,69.65
2022-10-20T09:08:24.657Z,68.40
2022-10-20T09:10:56.279Z,64.76
2022-10-20T09:13:28.997Z,61.18
2022-10-20T09:16:22.119Z,55.82
2022-10-20T09:18:47.574Z,54.59
2022-10-20T09:21:22.869Z,54.26
2022-10-20T09:23:56.251Z,53.90
2022-10-20T09:26:57.666Z,53.30
2022-10-20T09:29:15.501Z,54.66
2022-10-20T09:31:52.196Z,54.33
2022-10-20T09:34:34.270Z,50.59
2022-10-20T09:37:10.802Z,49.29
2022-10-20T09:39:44.219Z,49.64
2022-10-20T09:42:23.314Z,51.46
2022-10-20T09:45:22.977Z,53.85
2022-10-20T09:47:56.497Z,54.14
2022-10-20T09:50:29.890Z,53.91
2022-10-20T09:53:03.607Z,55.72
2022-10-20T09:55:41.790Z,56.13
2022-10-20T09:58:17.866Z,55.31
2022-10-20T10:00:51.432Z,53.81
2022-10-20T10:03:24.203Z,55.68
2022-10-20T10:06:01.395Z,57.20
2022-10-20T10:08:43.962Z,58.10
2022-10-20T10:11:17.511Z,57.66
2022-10-20T10:13:51.065Z,56.21
2022-10-20T10:16:25.442Z,55.91
2022-10-20T10:19:01.951Z,54.69
2022-10-20T10:21:44.678Z,55.92
2022-10-20T10:24:29.808Z,55.31
2022-10-20T10:27:02.112Z,55.49
2022-10-20T10:29:36.960Z,56.65
2022-10-20T10:32:25.772Z,56.81
2022-10-20T10:35:26.121Z,57.47
2022-10-20T10:37:58.157Z,55.14
2022-10-20T10:40:54.021Z,53.93
2022-10-20T10:43:59.252Z,54.19
2022-10-20T10:46:36.815Z,55.09
2022-10-20T10:49:12.938Z,54.53
2022-10-20T10:51:49.175Z,54.30
2022-10-20T10:54:44.400Z,52.62
2022-10-20T10:57:17.932Z,52.37
2022-10-20T10:59:50.765Z,52.33
2022-10-20T11:02:27.046Z,52.85
2022-10-20T11:08:10.944Z,54.00
2022-10-20T11:10:46.881Z,54.68
2022-10-20T11:13:29.138Z,54.07
2022-10-20T11:16:10.832Z,50.43
2022-10-20T11:19:02.459Z,48.41
2022-10-20T11:21:41.774Z,47.97
2022-10-20T11:24:37.543Z,49.26
2022-10-20T11:27:23.113Z,50.05
2022-10-20T11:30:16.501Z,49.71
2022-10-20T11:33:01.742Z,47.91
2022-10-20T11:35:47.425Z,45.34
2022-10-20T11:38:40.242Z,43.02
2022-10-20T11:41:22.573Z,42.59
2022-10-20T11:44:05.084Z,41.30
2022-10-20T11:46:56.696Z,39.65
2022-10-20T11:49:27.894Z,40.39
2022-10-20T11:52:07.181Z,40.35
2022-10-20T11:54:40.678Z,40.49
2022-10-20T11:57:30.869Z,42.43
2022-10-20T12:00:29.797Z,45.25
2022-10-20T12:03:08.869Z,47.64
2022-10-20T12:05:57.375Z,49.69
2022-10-20T12:08:59.827Z,49.94
2022-10-20T12:11:39.299Z,51.07
2022-10-20T12:14:15.272Z,51.64
2022-10-20T12:17:00.679Z,51.76
2022-10-20T12:19:35.886Z,52.31
2022-10-20T12:22:18.327Z,51.66
2022-10-20T12:24:54.707Z,51.47
2022-10-20T12:27:29.914Z,51.92
2022-10-20T12:30:06.184Z,52.78
2022-10-20T12:32:40.092Z,53.46
2022-10-20T12:35:16.491Z,53.16
2022-10-20T12:38:05.447Z,52.74
2022-10-20T12:40:44.560Z,52.86
2022-10-20T12:43:27.241Z,53.13
2022-10-20T12:46:06.218Z,52.57
2022-10-20T12:48:39.693Z,52.22
2022-10-20T12:51:15.669Z,53.35
2022-10-20T12:53:49.418Z,52.30
2022-10-20T12:56:22.135Z,52.72
2022-10-20T12:59:10.942Z,52.68
2022-10-20T13:02:14.675Z,51.65
2022-10-20T13:05:09.187Z,52.18
2022-10-20T13:07:55.850Z,52.48
2022-10-20T13:10:29.524Z,52.79
2022-10-20T13:13:05.907Z,53.47
2022-10-20T13:15:39.343Z,53.77
2022-10-20T13:18:19.866Z,53.83
2022-10-20T13:20:56.070Z,53.78
2022-10-20T13:23:40.907Z,53.52
2022-10-20T13:26:40.176Z,53.91
2022-10-20T13:29:22.282Z,54.00
2022-10-20T13:32:03.781Z,53.02
2022-10-20T13:34:42.536Z,52.52
2022-10-20T13:37:35.569Z,51.89
2022-10-20T13:40:14.936Z,52.80
2022-10-20T13:43:04.712Z,53.11
2022-10-20T13:45:38.180Z,53.75
2022-10-20T13:48:14.647Z,54.25
2022-10-20T13:50:49.486Z,53.92
2022-10-20T13:53:40.751Z,54.45
2022-10-20T13:56:20.142Z,55.02
2022-10-20T13:59:05.741Z,55.33
2022-10-20T14:01:36.820Z,56.01
2022-10-20T14:04:28.452Z,56.18
2022-10-20T14:07:04.401Z,56.39
2022-10-20T14:09:34.810Z,56.95
2022-10-20T14:12:11.379Z,56.18
2022-10-20T14:14:44.059Z,56.01
2022-10-20T14:17:20.341Z,56.81
2022-10-20T14:19:51.460Z,56.24
2022-10-20T14:22:25.186Z,57.25
2022-10-20T14:24:59.872Z,57.33
2022-10-20T14:27:33.774Z,56.82
2022-10-20T14:30:08.767Z,57.01
2022-10-20T14:32:41.046Z,57.51
2022-10-20T14:35:22.394Z,57.25
2022-10-20T14:38:04.520Z,57.08
2022-10-20T14:40:37.345Z,56.75
2022-10-20T14:43:10.169Z,57.10
2022-10-20T14:45:40.642Z,57.33
2022-10-20T14:48:14.119Z,57.19
2022-10-20T14:50:44.418Z,57.22
2022-10-20T14:53:27.239Z,57.92
2022-10-20T14:56:02.585Z,58.55
2022-10-20T14:58:41.669Z,58.66
2022-10-20T15:01:21.840Z,58.64
2022-10-20T15:04:26.554Z,58.82
2022-10-20T15:07:08.367Z,59.16
2022-10-20T15:09:53.289Z,59.45
2022-10-20T15:12:29.721Z,59.08
2022-10-20T15:15:09.081Z,59.22
2022-10-20T15:17:48.108Z,59.23
2022-10-20T15:20:37.465Z,59.44
2022-10-20T15:23:12.919Z,58.97
2022-10-20T15:26:02.774Z,59.47
2022-10-20T15:28:38.884Z,59.20
2022-10-20T15:31:14.887Z,59.75
2022-10-20T15:33:45.199Z,60.14
2022-10-20T15:36:25.164Z,60.91
2022-10-20T15:38:56.483Z,60.53
2022-10-20T15:41:30.011Z,60.70
2022-10-20T15:44:12.347Z,61.20
2022-10-20T15:46:44.935Z,61.41
2022-10-20T15:49:15.833Z,62.17
2022-10-20T15:51:48.026Z,62.37
2022-10-20T15:54:21.401Z,62.78
2022-10-20T15:56:51.947Z,63.50
2022-10-20T15:59:22.333Z,64.03
2022-10-20T16:01:52.703Z,64.41
2022-10-20T16:04:27.279Z,64.78
2022-10-20T16:07:01.778Z,65.03
2022-10-20T16:09:29.753Z,65.03
2022-10-20T16:12:00.199Z,65.62
2022-10-20T16:14:30.598Z,65.95
2022-10-20T16:17:00.967Z,65.86
2022-10-20T16:19:32.268Z,66.22
2022-10-20T16:22:02.641Z,66.73
2022-10-20T16:24:33.167Z,66.81
2022-10-20T16:27:05.172Z,67.05
2022-10-20T16:29:35.591Z,67.35
2022-10-20T16:32:06.028Z,67.43
2022-10-20T16:34:36.364Z,67.89
2022-10-20T16:37:06.672Z,68.28
2022-10-20T16:39:37.043Z,68.60
2022-10-20T16:42:07.599Z,68.76
2022-10-20T16:44:38.179Z,69.15
2022-10-20T16:47:08.549Z,69.24
2022-10-20T16:49:39.168Z,69.53
2022-10-20T16:52:09.560Z,69.74
2022-10-20T16:57:11.404Z,70.18
2022-10-20T16:59:43.155Z,70.51
2022-10-20T17:02:13.838Z,70.78
2022-10-20T17:04:45.963Z,70.86
2022-10-20T17:07:16.918Z,70.94
2022-10-20T17:09:47.300Z,71.40
2022-10-20T17:12:18.338Z,71.36
2022-10-20T17:14:48.728Z,71.50
2022-10-20T17:17:19.096Z,71.64
2022-10-20T17:19:49.484Z,71.86
2022-10-20T17:22:23.034Z,72.39
2022-10-20T17:24:53.528Z,72.65
2022-10-20T17:27:23.926Z,72.78
2022-10-20T17:29:54.359Z,73.03
2022-10-20T17:32:24.705Z,73.31
2022-10-20T17:34:55.079Z,73.43
2022-10-20T17:37:25.613Z,73.44
2022-10-20T17:39:56.002Z,73.87
2022-10-20T17:42:26.344Z,73.29
2022-10-20T17:44:56.709Z,74.01
2022-10-20T17:47:27.072Z,74.55
2022-10-20T17:49:57.509Z,74.06
2022-10-20T17:52:30.202Z,74.18
2022-10-20T17:55:00.671Z,73.91
2022-10-20T17:57:31.614Z,74.07
2022-10-20T18:00:05.039Z,74.03
2022-10-20T18:02:34.197Z,74.08
2022-10-20T18:05:05.006Z,73.99
2022-10-20T18:07:35.503Z,74.12
2022-10-20T18:10:06.451Z,74.15
2022-10-20T18:12:39.635Z,74.48
2022-10-20T18:15:10.370Z,74.81
2022-10-20T18:17:43.248Z,74.92
2022-10-20T18:20:13.425Z,74.86
2022-10-20T18:22:45.537Z,74.68
2022-10-20T18:25:16.071Z,74.54
2022-10-20T18:27:48.020Z,74.86
2022-10-20T18:30:18.414Z,74.80
2022-10-20T18:32:48.859Z,74.85
2022-10-20T18:37:51.342Z,74.63
2022-10-20T18:40:21.942Z,74.84
2022-10-20T18:42:52.463Z,74.68
2022-10-20T18:45:25.218Z,74.97
2022-10-20T18:47:54.929Z,75.03
2022-10-20T18:50:25.274Z,74.63
2022-10-20T18:52:55.706Z,74.80
2022-10-20T18:55:26.175Z,74.77
2022-10-20T18:57:56.565Z,74.87
2022-10-20T19:00:30.048Z,75.02
2022-10-20T19:03:05.009Z,74.98
2022-10-20T19:05:37.110Z,74.85
2022-10-20T19:08:07.489Z,75.17
2022-10-20T19:10:37.829Z,74.18
2022-10-20T19:13:08.298Z,74.68
2022-10-20T19:15:40.629Z,75.04
2022-10-20T19:18:11.165Z,75.15
2022-10-20T19:20:41.620Z,74.86
2022-10-20T19:23:12.325Z,75.06
2022-10-20T19:25:42.659Z,74.94
2022-10-20T19:28:13.286Z,74.99
2022-10-20T19:30:47.424Z,75.05
2022-10-20T19:33:17.742Z,75.02
2022-10-20T19:35:50.740Z,75.06
2022-10-20T19:38:21.582Z,74.94
2022-10-20T19:40:51.881Z,74.62
2022-10-20T19:43:22.460Z,74.87
2022-10-20T19:45:52.954Z,74.94
2022-10-20T19:48:23.499Z,75.02
2022-10-20T19:50:53.794Z,75.08
2022-10-20T19:53:24.113Z,75.02
2022-10-20T19:55:54.999Z,75.11
2022-10-20T19:58:25.390Z,75.43
2022-10-20T20:00:58.663Z,75.36
2022-10-20T20:03:29.233Z,75.26
2022-10-20T20:06:04.863Z,75.54
2022-10-20T20:08:36.222Z,75.53
2022-10-20T20:11:06.992Z,75.67
2022-10-20T20:13:37.627Z,75.75
2022-10-20T20:16:09.362Z,75.36
2022-10-20T20:18:39.838Z,75.59
2022-10-20T20:21:10.806Z,75.59
2022-10-20T20:23:58.259Z,75.96
2022-10-20T20:26:16.124Z,75.81
2022-10-20T20:28:46.020Z,75.95
2022-10-20T20:31:16.370Z,75.76
2022-10-20T20:33:46.823Z,75.73
2022-10-20T20:36:17.651Z,75.62
2022-10-20T20:38:49.250Z,75.66
2022-10-20T20:41:21.075Z,75.36
2022-10-20T20:43:51.573Z,75.67
2022-10-20T20:46:24.307Z,75.41
2022-10-20T20:48:54.704Z,75.60
2022-10-20T20:51:29.031Z,75.12
2022-10-20T20:53:59.468Z,75.23
2022-10-20T20:56:29.779Z,75.23
2022-10-20T20:59:00.205Z,75.18
2022-10-20T21:01:32.109Z,75.15
2022-10-20T21:04:05.218Z,75.40
2022-10-20T21:07:00.016Z,75.09
2022-10-20T21:09:11.369Z,75.39
2022-10-20T21:11:42.933Z,75.29
2022-10-20T21:14:13.385Z,75.36
2022-10-20T21:16:43.763Z,75.21
2022-10-20T21:19:15.291Z,75.14
2022-10-20T21:21:53.404Z,77.16
2022-10-20T21:24:26.181Z,76.94
2022-10-20T21:26:56.808Z,75.63
2022-10-20T21:29:27.271Z,73.95
2022-10-20T21:31:59.631Z,74.31
2022-10-20T21:34:30.121Z,73.74
2022-10-20T21:37:00.694Z,73.69
2022-10-20T21:42:01.500Z,74.44
2022-10-20T21:44:32.050Z,74.24
2022-10-20T21:47:02.358Z,74.37
2022-10-20T21:49:33.843Z,74.41
2022-10-20T21:52:04.329Z,74.39
2022-10-20T21:54:34.770Z,74.51
2022-10-20T21:57:05.383Z,74.19
2022-10-20T21:59:35.674Z,74.14
2022-10-20T22:02:07.618Z,74.21
2022-10-20T22:04:37.991Z,74.00
2022-10-20T22:07:08.369Z,73.96
2022-10-20T22:09:38.608Z,73.98
2022-10-20T22:12:08.909Z,73.81
2022-10-20T22:14:40.691Z,73.85
2022-10-20T22:17:11.326Z,73.97
2022-10-20T22:19:41.853Z,74.05
2022-10-20T22:22:12.352Z,74.21
2022-10-20T22:24:42.788Z,74.65
2022-10-20T22:27:25.072Z,75.30
2022-10-20T22:29:45.286Z,76.31
2022-10-20T22:32:15.665Z,78.44
2022-10-20T22:34:46.015Z,79.18
2022-10-20T22:37:16.345Z,79.94
2022-10-20T22:39:46.789Z,81.59
2022-10-20T22:42:18.368Z,82.93
2022-10-20T22:44:49.199Z,84.61
2022-10-20T22:47:21.145Z,85.20
2022-10-20T22:49:51.626Z,85.28
2022-10-20T22:52:22.114Z,86.01
2022-10-20T22:54:52.352Z,86.02
2022-10-20T22:57:22.756Z,86.23
2022-10-20T22:59:53.248Z,86.48
2022-10-20T23:02:23.762Z,86.62
2022-10-20T23:04:54.208Z,86.52
2022-10-20T23:07:24.935Z,86.58
2022-10-20T23:09:55.483Z,86.46
2022-10-20T23:12:25.967Z,86.23
2022-10-20T23:14:56.546Z,86.83
2022-10-20T23:17:27.597Z,86.70
2022-10-20T23:19:57.977Z,87.07
2022-10-20T23:22:28.474Z,87.08
2022-10-20T23:24:58.762Z,86.71
2022-10-20T23:27:29.159Z,86.65
2022-10-20T23:29:59.488Z,86.88
2022-10-20T23:32:30.343Z,86.94
2022-10-20T23:35:00.713Z,86.43
2022-10-20T23:37:31.185Z,86.35
2022-10-20T23:40:01.562Z,86.00
2022-10-20T23:42:31.893Z,86.14
2022-10-20T23:45:02.668Z,86.44
2022-10-20T23:47:33.405Z,86.38
2022-10-20T23:50:03.833Z,86.00
2022-10-20T23:52:34.262Z,85.92
2022-10-20T23:55:05.723Z,86.42
2022-10-20T23:57:36.554Z,86.75
